sensor_id;sensor_type;location;lat;lon;timestamp;P1;durP1;ratioP1;P2;durP2;ratioP2
46022;SDS011;31756;47.936;16.224;2022-09-21T00:01:08;2.37;;;2.03;;
46022;SDS011;31756;47.936;16.224;2022-09-21T00:03:34;2.10;;;1.90;;
46022;SDS011;31756;47.936;16.224;2022-09-21T00:06:07;3.07;;;1.60;;
46022;SDS011;31756;47.936;16.224;2022-09-21T00:08:32;3.00;;;2.10;;
46022;SDS011;31756;47.936;16.224;2022-09-21T00:10:57;2.00;;;1.83;;
46022;SDS011;31756;47.936;16.224;2022-09-21T00:13:24;2.57;;;2.30;;
46022;SDS011;31756;47.936;16.224;2022-09-21T00:15:50;2.17;;;1.92;;
46022;SDS011;31756;47.936;16.224;2022-09-21T00:18:16;2.45;;;2.25;;
46022;SDS011;31756;47.936;16.224;2022-09-21T00:20:42;2.97;;;2.10;;
46022;SDS011;31756;47.936;16.224;2022-09-21T00:23:08;3.17;;;2.37;;
46022;SDS011;31756;47.936;16.224;2022-09-21T00:25:33;2.50;;;2.07;;
46022;SDS011;31756;47.936;16.224;2022-09-21T00:27:59;4.00;;;2.13;;
46022;SDS011;31756;47.936;16.224;2022-09-21T00:30:24;2.67;;;2.47;;
46022;SDS011;31756;47.936;16.224;2022-09-21T00:32:49;2.58;;;1.65;;
46022;SDS011;31756;47.936;16.224;2022-09-21T00:35:15;1.50;;;1.40;;
46022;SDS011;31756;47.936;16.224;2022-09-21T00:37:40;1.47;;;1.37;;
46022;SDS011;31756;47.936;16.224;2022-09-21T00:40:05;2.72;;;1.50;;
46022;SDS011;31756;47.936;16.224;2022-09-21T00:42:31;2.20;;;1.60;;
46022;SDS011;31756;47.936;16.224;2022-09-21T00:44:57;1.50;;;1.40;;
46022;SDS011;31756;47.936;16.224;2022-09-21T00:47:33;1.63;;;1.53;;
46022;SDS011;31756;47.936;16.224;2022-09-21T00:50:00;1.60;;;1.33;;
46022;SDS011;31756;47.936;16.224;2022-09-21T00:52:27;2.15;;;1.80;;
46022;SDS011;31756;47.936;16.224;2022-09-21T00:54:58;1.48;;;1.38;;
46022;SDS011;31756;47.936;16.224;2022-09-21T00:57:25;1.73;;;1.63;;
46022;SDS011;31756;47.936;16.224;2022-09-21T00:59:52;2.28;;;1.63;;
46022;SDS011;31756;47.936;16.224;2022-09-21T01:02:19;3.85;;;1.50;;
46022;SDS011;31756;47.936;16.224;2022-09-21T01:04:45;1.55;;;1.45;;
46022;SDS011;31756;47.936;16.224;2022-09-21T01:07:12;2.83;;;1.20;;
46022;SDS011;31756;47.936;16.224;2022-09-21T01:09:39;3.23;;;1.70;;
46022;SDS011;31756;47.936;16.224;2022-09-21T01:14:54;1.88;;;1.60;;
46022;SDS011;31756;47.936;16.224;2022-09-21T01:22:41;1.83;;;1.73;;
46022;SDS011;31756;47.936;16.224;2022-09-21T01:30:20;3.25;;;1.52;;
46022;SDS011;31756;47.936;16.224;2022-09-21T01:32:54;1.52;;;1.42;;
46022;SDS011;31756;47.936;16.224;2022-09-21T01:35:23;1.52;;;1.42;;
46022;SDS011;31756;47.936;16.224;2022-09-21T01:40:45;3.38;;;1.70;;
46022;SDS011;31756;47.936;16.224;2022-09-21T01:43:12;1.77;;;1.60;;
46022;SDS011;31756;47.936;16.224;2022-09-21T01:45:43;2.33;;;1.70;;
46022;SDS011;31756;47.936;16.224;2022-09-21T01:48:10;1.95;;;1.75;;
46022;SDS011;31756;47.936;16.224;2022-09-21T01:50:39;4.45;;;2.38;;
46022;SDS011;31756;47.936;16.224;2022-09-21T01:53:10;2.15;;;2.00;;
46022;SDS011;31756;47.936;16.224;2022-09-21T01:55:44;2.17;;;1.98;;
46022;SDS011;31756;47.936;16.224;2022-09-21T01:58:18;1.92;;;1.83;;
46022;SDS011;31756;47.936;16.224;2022-09-21T02:00:46;2.25;;;2.00;;
46022;SDS011;31756;47.936;16.224;2022-09-21T02:05:38;2.95;;;2.55;;
46022;SDS011;31756;47.936;16.224;2022-09-21T02:08:04;3.92;;;2.25;;
46022;SDS011;31756;47.936;16.224;2022-09-21T02:10:31;2.38;;;2.28;;
46022;SDS011;31756;47.936;16.224;2022-09-21T02:12:58;3.75;;;2.40;;
46022;SDS011;31756;47.936;16.224;2022-09-21T02:15:27;3.38;;;2.10;;
46022;SDS011;31756;47.936;16.224;2022-09-21T02:18:06;5.00;;;2.50;;
46022;SDS011;31756;47.936;16.224;2022-09-21T02:20:38;2.67;;;2.35;;
46022;SDS011;31756;47.936;16.224;2022-09-21T02:28:00;2.70;;;2.50;;
46022;SDS011;31756;47.936;16.224;2022-09-21T02:30:27;2.47;;;2.20;;
46022;SDS011;31756;47.936;16.224;2022-09-21T02:35:26;2.95;;;2.53;;
46022;SDS011;31756;47.936;16.224;2022-09-21T02:40:42;2.55;;;1.90;;
46022;SDS011;31756;47.936;16.224;2022-09-21T02:43:46;2.35;;;2.15;;
46022;SDS011;31756;47.936;16.224;2022-09-21T02:46:25;2.53;;;2.22;;
46022;SDS011;31756;47.936;16.224;2022-09-21T02:48:50;2.60;;;2.40;;
46022;SDS011;31756;47.936;16.224;2022-09-21T02:51:18;2.20;;;1.88;;
46022;SDS011;31756;47.936;16.224;2022-09-21T02:53:45;2.80;;;2.60;;
46022;SDS011;31756;47.936;16.224;2022-09-21T02:56:11;3.92;;;2.22;;
46022;SDS011;31756;47.936;16.224;2022-09-21T02:58:38;2.55;;;2.20;;
46022;SDS011;31756;47.936;16.224;2022-09-21T03:01:04;2.95;;;2.60;;
46022;SDS011;31756;47.936;16.224;2022-09-21T03:03:31;5.30;;;2.90;;
46022;SDS011;31756;47.936;16.224;2022-09-21T03:05:57;3.53;;;2.75;;
46022;SDS011;31756;47.936;16.224;2022-09-21T03:08:23;3.00;;;2.80;;
46022;SDS011;31756;47.936;16.224;2022-09-21T03:10:48;5.63;;;3.00;;
46022;SDS011;31756;47.936;16.224;2022-09-21T03:13:14;3.17;;;2.90;;
46022;SDS011;31756;47.936;16.224;2022-09-21T03:15:40;4.63;;;3.75;;
46022;SDS011;31756;47.936;16.224;2022-09-21T03:18:06;3.13;;;2.80;;
46022;SDS011;31756;47.936;16.224;2022-09-21T03:20:33;3.38;;;2.85;;
46022;SDS011;31756;47.936;16.224;2022-09-21T03:22:59;3.72;;;3.35;;
46022;SDS011;31756;47.936;16.224;2022-09-21T03:25:25;3.17;;;2.80;;
46022;SDS011;31756;47.936;16.224;2022-09-21T03:27:50;3.20;;;2.90;;
46022;SDS011;31756;47.936;16.224;2022-09-21T03:30:19;3.70;;;2.67;;
46022;SDS011;31756;47.936;16.224;2022-09-21T03:32:47;5.28;;;3.28;;
46022;SDS011;31756;47.936;16.224;2022-09-21T03:35:12;2.97;;;2.45;;
46022;SDS011;31756;47.936;16.224;2022-09-21T03:37:37;8.27;;;2.40;;
46022;SDS011;31756;47.936;16.224;2022-09-21T03:40:03;3.85;;;2.40;;
46022;SDS011;31756;47.936;16.224;2022-09-21T03:42:28;3.25;;;2.30;;
46022;SDS011;31756;47.936;16.224;2022-09-21T03:44:53;2.38;;;2.20;;
46022;SDS011;31756;47.936;16.224;2022-09-21T03:47:18;2.75;;;2.47;;
46022;SDS011;31756;47.936;16.224;2022-09-21T03:49:44;2.60;;;2.40;;
46022;SDS011;31756;47.936;16.224;2022-09-21T03:52:10;3.00;;;2.78;;
46022;SDS011;31756;47.936;16.224;2022-09-21T03:54:35;3.00;;;2.28;;
46022;SDS011;31756;47.936;16.224;2022-09-21T03:57:00;4.22;;;2.75;;
46022;SDS011;31756;47.936;16.224;2022-09-21T03:59:25;2.58;;;2.25;;
46022;SDS011;31756;47.936;16.224;2022-09-21T04:01:50;3.58;;;2.78;;
46022;SDS011;31756;47.936;16.224;2022-09-21T04:04:16;2.90;;;2.70;;
46022;SDS011;31756;47.936;16.224;2022-09-21T04:06:41;2.38;;;2.17;;
46022;SDS011;31756;47.936;16.224;2022-09-21T04:09:10;2.38;;;2.17;;
46022;SDS011;31756;47.936;16.224;2022-09-21T04:11:35;4.60;;;2.58;;
46022;SDS011;31756;47.936;16.224;2022-09-21T04:14:00;2.35;;;2.17;;
46022;SDS011;31756;47.936;16.224;2022-09-21T04:16:25;2.42;;;2.25;;
46022;SDS011;31756;47.936;16.224;2022-09-21T04:18:51;2.63;;;2.47;;
46022;SDS011;31756;47.936;16.224;2022-09-21T04:21:17;5.30;;;2.80;;
46022;SDS011;31756;47.936;16.224;2022-09-21T04:23:42;3.10;;;2.90;;
46022;SDS011;31756;47.936;16.224;2022-09-21T04:26:17;3.08;;;2.67;;
46022;SDS011;31756;47.936;16.224;2022-09-21T04:28:43;3.92;;;3.20;;
46022;SDS011;31756;47.936;16.224;2022-09-21T04:31:09;4.75;;;3.30;;
46022;SDS011;31756;47.936;16.224;2022-09-21T04:33:34;6.70;;;4.50;;
46022;SDS011;31756;47.936;16.224;2022-09-21T04:35:59;4.80;;;3.03;;
46022;SDS011;31756;47.936;16.224;2022-09-21T04:38:25;3.33;;;3.03;;
46022;SDS011;31756;47.936;16.224;2022-09-21T04:40:55;3.35;;;2.58;;
46022;SDS011;31756;47.936;16.224;2022-09-21T04:43:20;3.83;;;3.03;;
46022;SDS011;31756;47.936;16.224;2022-09-21T04:45:45;3.00;;;2.63;;
46022;SDS011;31756;47.936;16.224;2022-09-21T04:48:10;3.05;;;2.65;;
46022;SDS011;31756;47.936;16.224;2022-09-21T04:50:36;3.20;;;2.90;;
46022;SDS011;31756;47.936;16.224;2022-09-21T04:53:02;3.30;;;3.00;;
46022;SDS011;31756;47.936;16.224;2022-09-21T04:55:27;5.20;;;3.57;;
46022;SDS011;31756;47.936;16.224;2022-09-21T04:57:52;4.28;;;2.97;;
46022;SDS011;31756;47.936;16.224;2022-09-21T05:00:17;3.90;;;3.40;;
46022;SDS011;31756;47.936;16.224;2022-09-21T05:02:43;3.88;;;3.47;;
46022;SDS011;31756;47.936;16.224;2022-09-21T05:05:08;4.28;;;3.20;;
46022;SDS011;31756;47.936;16.224;2022-09-21T05:07:34;4.10;;;3.70;;
46022;SDS011;31756;47.936;16.224;2022-09-21T05:09:59;6.15;;;3.50;;
46022;SDS011;31756;47.936;16.224;2022-09-21T05:12:27;2.90;;;2.70;;
46022;SDS011;31756;47.936;16.224;2022-09-21T05:14:52;3.95;;;3.55;;
46022;SDS011;31756;47.936;16.224;2022-09-21T05:17:20;5.00;;;4.33;;
46022;SDS011;31756;47.936;16.224;2022-09-21T05:19:47;4.63;;;3.80;;
46022;SDS011;31756;47.936;16.224;2022-09-21T05:22:12;4.22;;;3.70;;
46022;SDS011;31756;47.936;16.224;2022-09-21T05:24:37;5.45;;;3.47;;
46022;SDS011;31756;47.936;16.224;2022-09-21T05:27:02;3.65;;;3.33;;
46022;SDS011;31756;47.936;16.224;2022-09-21T05:29:28;3.60;;;3.30;;
46022;SDS011;31756;47.936;16.224;2022-09-21T05:32:00;4.20;;;3.72;;
46022;SDS011;31756;47.936;16.224;2022-09-21T05:39:23;3.92;;;3.00;;
46022;SDS011;31756;47.936;16.224;2022-09-21T05:41:48;4.43;;;3.70;;
46022;SDS011;31756;47.936;16.224;2022-09-21T05:44:14;5.07;;;3.47;;
46022;SDS011;31756;47.936;16.224;2022-09-21T05:49:12;3.85;;;2.88;;
46022;SDS011;31756;47.936;16.224;2022-09-21T06:04:19;7.88;;;2.70;;
46022;SDS011;31756;47.936;16.224;2022-09-21T06:06:44;2.50;;;2.20;;
46022;SDS011;31756;47.936;16.224;2022-09-21T06:09:09;4.63;;;2.17;;
46022;SDS011;31756;47.936;16.224;2022-09-21T06:11:35;3.72;;;2.55;;
46022;SDS011;31756;47.936;16.224;2022-09-21T06:14:00;4.50;;;3.35;;
46022;SDS011;31756;47.936;16.224;2022-09-21T06:16:26;4.45;;;2.50;;
46022;SDS011;31756;47.936;16.224;2022-09-21T06:19:00;3.80;;;3.15;;
46022;SDS011;31756;47.936;16.224;2022-09-21T06:21:25;3.58;;;2.40;;
46022;SDS011;31756;47.936;16.224;2022-09-21T06:23:50;3.33;;;2.65;;
46022;SDS011;31756;47.936;16.224;2022-09-21T06:26:15;3.45;;;2.25;;
46022;SDS011;31756;47.936;16.224;2022-09-21T06:28:41;4.78;;;2.20;;
46022;SDS011;31756;47.936;16.224;2022-09-21T06:31:07;4.60;;;2.53;;
46022;SDS011;31756;47.936;16.224;2022-09-21T06:33:32;2.60;;;1.88;;
46022;SDS011;31756;47.936;16.224;2022-09-21T06:35:59;2.65;;;2.10;;
46022;SDS011;31756;47.936;16.224;2022-09-21T06:38:26;2.47;;;2.28;;
46022;SDS011;31756;47.936;16.224;2022-09-21T06:40:51;2.88;;;2.22;;
46022;SDS011;31756;47.936;16.224;2022-09-21T06:43:17;2.50;;;2.25;;
46022;SDS011;31756;47.936;16.224;2022-09-21T06:45:42;4.15;;;1.88;;
46022;SDS011;31756;47.936;16.224;2022-09-21T06:48:08;2.17;;;1.98;;
46022;SDS011;31756;47.936;16.224;2022-09-21T06:50:33;2.72;;;2.50;;
46022;SDS011;31756;47.936;16.224;2022-09-21T06:52:59;1.95;;;1.75;;
46022;SDS011;31756;47.936;16.224;2022-09-21T06:55:24;1.80;;;1.60;;
46022;SDS011;31756;47.936;16.224;2022-09-21T06:57:49;4.65;;;2.38;;
46022;SDS011;31756;47.936;16.224;2022-09-21T07:00:15;2.75;;;2.20;;
46022;SDS011;31756;47.936;16.224;2022-09-21T07:02:44;2.95;;;1.88;;
46022;SDS011;31756;47.936;16.224;2022-09-21T07:05:09;2.00;;;1.73;;
46022;SDS011;31756;47.936;16.224;2022-09-21T07:07:35;2.00;;;1.80;;
46022;SDS011;31756;47.936;16.224;2022-09-21T07:10:00;2.83;;;2.25;;
46022;SDS011;31756;47.936;16.224;2022-09-21T07:12:28;4.10;;;1.65;;
46022;SDS011;31756;47.936;16.224;2022-09-21T07:14:58;3.38;;;1.92;;
46022;SDS011;31756;47.936;16.224;2022-09-21T07:17:23;2.53;;;2.00;;
46022;SDS011;31756;47.936;16.224;2022-09-21T07:19:49;1.67;;;1.50;;
46022;SDS011;31756;47.936;16.224;2022-09-21T07:22:14;2.70;;;1.85;;
46022;SDS011;31756;47.936;16.224;2022-09-21T07:24:39;4.72;;;1.83;;
46022;SDS011;31756;47.936;16.224;2022-09-21T07:27:04;1.77;;;1.67;;
46022;SDS011;31756;47.936;16.224;2022-09-21T07:29:30;3.90;;;1.80;;
46022;SDS011;31756;47.936;16.224;2022-09-21T07:31:55;3.45;;;1.58;;
46022;SDS011;31756;47.936;16.224;2022-09-21T07:34:20;1.60;;;1.50;;
46022;SDS011;31756;47.936;16.224;2022-09-21T07:36:47;1.60;;;1.50;;
46022;SDS011;31756;47.936;16.224;2022-09-21T07:39:12;2.70;;;1.63;;
46022;SDS011;31756;47.936;16.224;2022-09-21T07:41:37;1.98;;;1.50;;
46022;SDS011;31756;47.936;16.224;2022-09-21T07:44:03;2.67;;;1.40;;
46022;SDS011;31756;47.936;16.224;2022-09-21T07:46:28;1.23;;;1.20;;
46022;SDS011;31756;47.936;16.224;2022-09-21T07:48:54;2.95;;;1.60;;
46022;SDS011;31756;47.936;16.224;2022-09-21T07:51:20;1.73;;;1.63;;
46022;SDS011;31756;47.936;16.224;2022-09-21T07:53:45;1.67;;;1.58;;
46022;SDS011;31756;47.936;16.224;2022-09-21T07:56:14;1.48;;;1.33;;
46022;SDS011;31756;47.936;16.224;2022-09-21T07:58:40;2.70;;;1.40;;
46022;SDS011;31756;47.936;16.224;2022-09-21T08:01:25;1.38;;;1.27;;
46022;SDS011;31756;47.936;16.224;2022-09-21T08:03:51;1.75;;;1.25;;
46022;SDS011;31756;47.936;16.224;2022-09-21T08:06:17;1.45;;;1.35;;
46022;SDS011;31756;47.936;16.224;2022-09-21T08:08:43;1.90;;;1.75;;
46022;SDS011;31756;47.936;16.224;2022-09-21T08:11:08;2.88;;;1.77;;
46022;SDS011;31756;47.936;16.224;2022-09-21T08:13:35;2.35;;;1.80;;
46022;SDS011;31756;47.936;16.224;2022-09-21T08:16:01;1.92;;;1.27;;
46022;SDS011;31756;47.936;16.224;2022-09-21T08:18:26;1.50;;;1.50;;
46022;SDS011;31756;47.936;16.224;2022-09-21T08:20:52;3.35;;;2.47;;
46022;SDS011;31756;47.936;16.224;2022-09-21T08:23:18;1.95;;;1.85;;
46022;SDS011;31756;47.936;16.224;2022-09-21T08:25:43;2.88;;;2.10;;
46022;SDS011;31756;47.936;16.224;2022-09-21T08:28:09;2.17;;;1.98;;
46022;SDS011;31756;47.936;16.224;2022-09-21T08:30:34;2.13;;;1.92;;
46022;SDS011;31756;47.936;16.224;2022-09-21T08:32:59;2.67;;;1.67;;
46022;SDS011;31756;47.936;16.224;2022-09-21T08:35:24;1.63;;;1.52;;
46022;SDS011;31756;47.936;16.224;2022-09-21T08:37:52;2.22;;;1.88;;
46022;SDS011;31756;47.936;16.224;2022-09-21T08:40:17;2.08;;;1.95;;
46022;SDS011;31756;47.936;16.224;2022-09-21T08:42:47;1.92;;;1.65;;
46022;SDS011;31756;47.936;16.224;2022-09-21T08:45:16;1.88;;;1.77;;
46022;SDS011;31756;47.936;16.224;2022-09-21T08:47:46;1.40;;;1.30;;
46022;SDS011;31756;47.936;16.224;2022-09-21T08:53:02;1.48;;;1.38;;
46022;SDS011;31756;47.936;16.224;2022-09-21T08:55:28;2.83;;;1.55;;
46022;SDS011;31756;47.936;16.224;2022-09-21T08:57:53;1.38;;;1.30;;
46022;SDS011;31756;47.936;16.224;2022-09-21T09:00:19;2.38;;;1.55;;
46022;SDS011;31756;47.936;16.224;2022-09-21T09:18:10;1.08;;;1.00;;
46022;SDS011;31756;47.936;16.224;2022-09-21T09:20:39;1.13;;;1.02;;
46022;SDS011;31756;47.936;16.224;2022-09-21T09:23:11;0.85;;;0.85;;
46022;SDS011;31756;47.936;16.224;2022-09-21T09:25:39;1.38;;;0.98;;
46022;SDS011;31756;47.936;16.224;2022-09-21T09:30:45;1.13;;;1.02;;
46022;SDS011;31756;47.936;16.224;2022-09-21T09:33:25;1.70;;;1.10;;
46022;SDS011;31756;47.936;16.224;2022-09-21T09:35:57;1.98;;;1.35;;
46022;SDS011;31756;47.936;16.224;2022-09-21T09:45:55;1.08;;;0.98;;
46022;SDS011;31756;47.936;16.224;2022-09-21T09:48:26;1.63;;;1.40;;
46022;SDS011;31756;47.936;16.224;2022-09-21T09:50:53;1.40;;;1.30;;
46022;SDS011;31756;47.936;16.224;2022-09-21T09:53:19;1.48;;;1.17;;
46022;SDS011;31756;47.936;16.224;2022-09-21T09:55:46;1.35;;;1.25;;
46022;SDS011;31756;47.936;16.224;2022-09-21T09:58:17;1.17;;;1.17;;
46022;SDS011;31756;47.936;16.224;2022-09-21T10:00:44;1.23;;;1.10;;
46022;SDS011;31756;47.936;16.224;2022-09-21T10:03:16;0.95;;;0.95;;
46022;SDS011;31756;47.936;16.224;2022-09-21T10:05:42;2.83;;;1.13;;
46022;SDS011;31756;47.936;16.224;2022-09-21T10:08:27;1.95;;;1.10;;
46022;SDS011;31756;47.936;16.224;2022-09-21T10:10:53;1.35;;;1.10;;
46022;SDS011;31756;47.936;16.224;2022-09-21T10:21:00;1.48;;;1.38;;
46022;SDS011;31756;47.936;16.224;2022-09-21T10:23:26;2.22;;;1.25;;
46022;SDS011;31756;47.936;16.224;2022-09-21T10:25:53;1.40;;;1.40;;
46022;SDS011;31756;47.936;16.224;2022-09-21T10:28:19;1.98;;;1.10;;
46022;SDS011;31756;47.936;16.224;2022-09-21T10:30:46;1.25;;;1.17;;
46022;SDS011;31756;47.936;16.224;2022-09-21T10:33:17;2.20;;;1.52;;
46022;SDS011;31756;47.936;16.224;2022-09-21T10:35:49;1.70;;;1.38;;
46022;SDS011;31756;47.936;16.224;2022-09-21T10:38:16;1.50;;;1.45;;
46022;SDS011;31756;47.936;16.224;2022-09-21T10:40:42;1.73;;;1.42;;
46022;SDS011;31756;47.936;16.224;2022-09-21T10:43:20;1.60;;;1.50;;
46022;SDS011;31756;47.936;16.224;2022-09-21T10:45:53;1.50;;;1.38;;
46022;SDS011;31756;47.936;16.224;2022-09-21T10:48:20;2.55;;;1.27;;
46022;SDS011;31756;47.936;16.224;2022-09-21T10:50:47;4.97;;;3.15;;
46022;SDS011;31756;47.936;16.224;2022-09-21T10:58:10;2.22;;;1.35;;
46022;SDS011;31756;47.936;16.224;2022-09-21T11:00:47;1.60;;;1.50;;
46022;SDS011;31756;47.936;16.224;2022-09-21T11:06:01;1.30;;;1.30;;
46022;SDS011;31756;47.936;16.224;2022-09-21T11:11:02;1.30;;;1.30;;
46022;SDS011;31756;47.936;16.224;2022-09-21T11:13:34;1.52;;;1.50;;
46022;SDS011;31756;47.936;16.224;2022-09-21T11:16:03;1.98;;;1.30;;
46022;SDS011;31756;47.936;16.224;2022-09-21T11:21:04;2.20;;;1.85;;
46022;SDS011;31756;47.936;16.224;2022-09-21T11:26:06;1.70;;;1.60;;
46022;SDS011;31756;47.936;16.224;2022-09-21T11:28:38;1.50;;;1.40;;
46022;SDS011;31756;47.936;16.224;2022-09-21T11:31:09;1.92;;;1.58;;
46022;SDS011;31756;47.936;16.224;2022-09-21T11:38:44;1.60;;;1.50;;
46022;SDS011;31756;47.936;16.224;2022-09-21T11:41:17;1.50;;;1.40;;
46022;SDS011;31756;47.936;16.224;2022-09-21T11:51:26;1.55;;;1.45;;
46022;SDS011;31756;47.936;16.224;2022-09-21T11:54:13;1.40;;;1.40;;
46022;SDS011;31756;47.936;16.224;2022-09-21T11:56:42;1.63;;;1.50;;
46022;SDS011;31756;47.936;16.224;2022-09-21T12:01:41;1.50;;;1.40;;
46022;SDS011;31756;47.936;16.224;2022-09-21T12:09:27;1.40;;;1.30;;
46022;SDS011;31756;47.936;16.224;2022-09-21T12:20:02;1.55;;;1.40;;
46022;SDS011;31756;47.936;16.224;2022-09-21T12:27:55;2.22;;;1.40;;
46022;SDS011;31756;47.936;16.224;2022-09-21T12:30:22;1.27;;;1.27;;
46022;SDS011;31756;47.936;16.224;2022-09-21T12:32:49;1.35;;;1.35;;
46022;SDS011;31756;47.936;16.224;2022-09-21T12:35:20;1.67;;;1.60;;
46022;SDS011;31756;47.936;16.224;2022-09-21T12:38:31;1.70;;;1.60;;
46022;SDS011;31756;47.936;16.224;2022-09-21T12:40:42;2.53;;;1.67;;
46022;SDS011;31756;47.936;16.224;2022-09-21T12:46:01;1.60;;;1.60;;
46022;SDS011;31756;47.936;16.224;2022-09-21T12:48:29;4.05;;;2.08;;
46022;SDS011;31756;47.936;16.224;2022-09-21T12:51:01;1.67;;;1.55;;
46022;SDS011;31756;47.936;16.224;2022-09-21T12:53:27;1.52;;;1.42;;
46022;SDS011;31756;47.936;16.224;2022-09-21T12:55:55;1.38;;;1.27;;
46022;SDS011;31756;47.936;16.224;2022-09-21T13:06:42;1.30;;;1.20;;
46022;SDS011;31756;47.936;16.224;2022-09-21T13:09:10;1.42;;;1.38;;
46022;SDS011;31756;47.936;16.224;2022-09-21T13:11:36;1.50;;;1.40;;
46022;SDS011;31756;47.936;16.224;2022-09-21T13:14:13;1.33;;;1.23;;
46022;SDS011;31756;47.936;16.224;2022-09-21T13:16:39;1.20;;;1.20;;
46022;SDS011;31756;47.936;16.224;2022-09-21T13:19:15;1.58;;;1.40;;
46022;SDS011;31756;47.936;16.224;2022-09-21T13:21:42;1.52;;;1.42;;
46022;SDS011;31756;47.936;16.224;2022-09-21T13:24:22;1.92;;;1.48;;
46022;SDS011;31756;47.936;16.224;2022-09-21T13:26:50;1.60;;;1.50;;
46022;SDS011;31756;47.936;16.224;2022-09-21T13:31:52;1.20;;;1.20;;
46022;SDS011;31756;47.936;16.224;2022-09-21T13:34:25;1.55;;;1.45;;
46022;SDS011;31756;47.936;16.224;2022-09-21T13:39:44;1.33;;;1.20;;
46022;SDS011;31756;47.936;16.224;2022-09-21T13:44:56;1.45;;;1.40;;
46022;SDS011;31756;47.936;16.224;2022-09-21T13:49:56;1.92;;;1.67;;
46022;SDS011;31756;47.936;16.224;2022-09-21T13:52:56;1.30;;;1.30;;
46022;SDS011;31756;47.936;16.224;2022-09-21T13:55:23;1.20;;;1.20;;
46022;SDS011;31756;47.936;16.224;2022-09-21T13:57:51;1.50;;;1.45;;
46022;SDS011;31756;47.936;16.224;2022-09-21T14:10:24;1.45;;;1.35;;
46022;SDS011;31756;47.936;16.224;2022-09-21T14:12:49;1.58;;;1.50;;
46022;SDS011;31756;47.936;16.224;2022-09-21T14:17:41;1.83;;;1.27;;
46022;SDS011;31756;47.936;16.224;2022-09-21T14:23:09;1.13;;;1.13;;
46022;SDS011;31756;47.936;16.224;2022-09-21T14:25:51;1.17;;;1.13;;
46022;SDS011;31756;47.936;16.224;2022-09-21T14:28:17;1.63;;;1.50;;
46022;SDS011;31756;47.936;16.224;2022-09-21T14:30:48;1.40;;;1.30;;
46022;SDS011;31756;47.936;16.224;2022-09-21T14:33:19;1.63;;;1.52;;
46022;SDS011;31756;47.936;16.224;2022-09-21T14:35:45;1.80;;;1.20;;
46022;SDS011;31756;47.936;16.224;2022-09-21T14:38:57;2.00;;;1.52;;
46022;SDS011;31756;47.936;16.224;2022-09-21T14:41:04;1.60;;;1.50;;
46022;SDS011;31756;47.936;16.224;2022-09-21T14:43:32;1.30;;;1.27;;
46022;SDS011;31756;47.936;16.224;2022-09-21T14:51:19;1.58;;;1.48;;
46022;SDS011;31756;47.936;16.224;2022-09-21T14:58:44;2.90;;;1.63;;
46022;SDS011;31756;47.936;16.224;2022-09-21T15:06:44;1.40;;;1.30;;
46022;SDS011;31756;47.936;16.224;2022-09-21T15:09:53;1.15;;;1.15;;
46022;SDS011;31756;47.936;16.224;2022-09-21T15:15:15;1.30;;;1.30;;
46022;SDS011;31756;47.936;16.224;2022-09-21T15:17:51;1.42;;;1.33;;
46022;SDS011;31756;47.936;16.224;2022-09-21T15:20:21;1.52;;;1.42;;
46022;SDS011;31756;47.936;16.224;2022-09-21T15:22:47;1.65;;;1.55;;
46022;SDS011;31756;47.936;16.224;2022-09-21T15:25:12;1.60;;;1.50;;
46022;SDS011;31756;47.936;16.224;2022-09-21T15:27:40;2.50;;;1.77;;
46022;SDS011;31756;47.936;16.224;2022-09-21T15:30:06;1.20;;;1.10;;
46022;SDS011;31756;47.936;16.224;2022-09-21T15:32:43;1.25;;;1.25;;
46022;SDS011;31756;47.936;16.224;2022-09-21T15:37:39;2.13;;;1.80;;
46022;SDS011;31756;47.936;16.224;2022-09-21T15:40:05;1.85;;;1.48;;
46022;SDS011;31756;47.936;16.224;2022-09-21T15:42:33;2.67;;;1.67;;
46022;SDS011;31756;47.936;16.224;2022-09-21T15:45:15;1.75;;;1.65;;
46022;SDS011;31756;47.936;16.224;2022-09-21T15:47:40;2.25;;;1.73;;
46022;SDS011;31756;47.936;16.224;2022-09-21T15:50:11;2.00;;;1.90;;
46022;SDS011;31756;47.936;16.224;2022-09-21T15:52:38;1.60;;;1.50;;
46022;SDS011;31756;47.936;16.224;2022-09-21T15:55:10;2.95;;;1.52;;
46022;SDS011;31756;47.936;16.224;2022-09-21T15:57:36;1.80;;;1.70;;
46022;SDS011;31756;47.936;16.224;2022-09-21T16:00:05;1.75;;;1.58;;
46022;SDS011;31756;47.936;16.224;2022-09-21T16:02:36;1.95;;;1.23;;
46022;SDS011;31756;47.936;16.224;2022-09-21T16:05:02;2.00;;;1.90;;
46022;SDS011;31756;47.936;16.224;2022-09-21T16:09:57;1.83;;;1.73;;
46022;SDS011;31756;47.936;16.224;2022-09-21T16:14:53;1.60;;;1.50;;
46022;SDS011;31756;47.936;16.224;2022-09-21T16:17:24;1.63;;;1.52;;
46022;SDS011;31756;47.936;16.224;2022-09-21T16:22:18;1.67;;;1.58;;
46022;SDS011;31756;47.936;16.224;2022-09-21T16:24:48;3.20;;;1.50;;
46022;SDS011;31756;47.936;16.224;2022-09-21T16:27:15;1.60;;;1.45;;
46022;SDS011;31756;47.936;16.224;2022-09-21T16:29:42;1.50;;;1.40;;
46022;SDS011;31756;47.936;16.224;2022-09-21T16:34:42;2.90;;;2.17;;
46022;SDS011;31756;47.936;16.224;2022-09-21T16:39:49;3.90;;;1.83;;
46022;SDS011;31756;47.936;16.224;2022-09-21T16:42:14;2.53;;;2.33;;
46022;SDS011;31756;47.936;16.224;2022-09-21T16:44:40;1.63;;;1.52;;
46022;SDS011;31756;47.936;16.224;2022-09-21T16:47:12;2.10;;;1.35;;
46022;SDS011;31756;47.936;16.224;2022-09-21T16:49:39;1.90;;;1.80;;
46022;SDS011;31756;47.936;16.224;2022-09-21T16:52:04;1.95;;;1.85;;
46022;SDS011;31756;47.936;16.224;2022-09-21T16:54:31;2.53;;;2.42;;
46022;SDS011;31756;47.936;16.224;2022-09-21T16:56:58;2.85;;;2.03;;
46022;SDS011;31756;47.936;16.224;2022-09-21T16:59:23;1.35;;;1.25;;
46022;SDS011;31756;47.936;16.224;2022-09-21T17:01:50;1.50;;;1.40;;
46022;SDS011;31756;47.936;16.224;2022-09-21T17:04:17;2.03;;;1.40;;
46022;SDS011;31756;47.936;16.224;2022-09-21T17:06:42;1.70;;;1.33;;
46022;SDS011;31756;47.936;16.224;2022-09-21T17:09:18;1.15;;;1.15;;
46022;SDS011;31756;47.936;16.224;2022-09-21T17:11:44;1.30;;;1.20;;
46022;SDS011;31756;47.936;16.224;2022-09-21T17:14:10;1.50;;;1.40;;
46022;SDS011;31756;47.936;16.224;2022-09-21T17:16:37;1.98;;;1.52;;
46022;SDS011;31756;47.936;16.224;2022-09-21T17:19:02;2.00;;;1.48;;
46022;SDS011;31756;47.936;16.224;2022-09-21T17:21:27;1.92;;;1.52;;
46022;SDS011;31756;47.936;16.224;2022-09-21T17:23:53;1.60;;;1.50;;
46022;SDS011;31756;47.936;16.224;2022-09-21T17:26:18;1.80;;;1.70;;
46022;SDS011;31756;47.936;16.224;2022-09-21T17:28:45;2.72;;;2.00;;
46022;SDS011;31756;47.936;16.224;2022-09-21T17:31:10;1.88;;;1.50;;
46022;SDS011;31756;47.936;16.224;2022-09-21T17:33:36;1.65;;;1.45;;
46022;SDS011;31756;47.936;16.224;2022-09-21T17:36:02;2.30;;;1.50;;
46022;SDS011;31756;47.936;16.224;2022-09-21T17:38:30;1.20;;;1.20;;
46022;SDS011;31756;47.936;16.224;2022-09-21T17:40:56;2.90;;;1.50;;
46022;SDS011;31756;47.936;16.224;2022-09-21T17:48:42;1.58;;;1.50;;
46022;SDS011;31756;47.936;16.224;2022-09-21T17:51:08;1.52;;;1.38;;
46022;SDS011;31756;47.936;16.224;2022-09-21T17:53:33;1.77;;;1.27;;
46022;SDS011;31756;47.936;16.224;2022-09-21T17:56:07;1.85;;;1.75;;
46022;SDS011;31756;47.936;16.224;2022-09-21T18:01:12;1.42;;;1.33;;
46022;SDS011;31756;47.936;16.224;2022-09-21T18:03:42;1.45;;;1.35;;
46022;SDS011;31756;47.936;16.224;2022-09-21T18:06:09;2.17;;;1.98;;
46022;SDS011;31756;47.936;16.224;2022-09-21T18:08:34;1.65;;;1.52;;
46022;SDS011;31756;47.936;16.224;2022-09-21T18:16:33;2.42;;;1.60;;